sensor_id;sensor_type;location;lat;lon;timestamp;pressure;altitude;pressure_sealevel;temperature;humidity
64668;BME280;51077;42.716;23.344;2022-10-31T00:01:13;95820.72;;;16.26;43.87
64668;BME280;51077;42.716;23.344;2022-10-31T00:03:39;95826.59;;;16.23;43.95
64668;BME280;51077;42.716;23.344;2022-10-31T00:06:04;95814.34;;;16.18;44.03
64668;BME280;51077;42.716;23.344;2022-10-31T00:08:30;95814.91;;;16.17;44.04
64668;BME280;51077;42.716;23.344;2022-10-31T00:10:55;95818.81;;;16.21;44.01
64668;BME280;51077;42.716;23.344;2022-10-31T00:13:21;95819.69;;;16.16;44.02
64668;BME280;51077;42.716;23.344;2022-10-31T00:15:46;95821.50;;;16.14;44.16
64668;BME280;51077;42.716;23.344;2022-10-31T00:18:11;95825.56;;;16.13;44.30
64668;BME280;51077;42.716;23.344;2022-10-31T00:20:37;95827.03;;;16.14;44.35
64668;BME280;51077;42.716;23.344;2022-10-31T00:23:04;95816.28;;;16.10;44.57
64668;BME280;51077;42.716;23.344;2022-10-31T00:25:34;95816.06;;;16.21;44.05
64668;BME280;51077;42.716;23.344;2022-10-31T00:28:01;95816.94;;;16.16;44.41
64668;BME280;51077;42.716;23.344;2022-10-31T00:30:26;95808.94;;;16.13;44.42
64668;BME280;51077;42.716;23.344;2022-10-31T00:32:51;95818.94;;;16.16;44.56
64668;BME280;51077;42.716;23.344;2022-10-31T00:35:17;95810.97;;;16.12;44.53
64668;BME280;51077;42.716;23.344;2022-10-31T00:37:42;95812.78;;;16.09;44.79
64668;BME280;51077;42.716;23.344;2022-10-31T00:40:08;95806.81;;;16.05;44.82
64668;BME280;51077;42.716;23.344;2022-10-31T00:42:34;95815.78;;;15.98;44.81
64668;BME280;51077;42.716;23.344;2022-10-31T00:44:59;95812.19;;;15.90;45.17
64668;BME280;51077;42.716;23.344;2022-10-31T00:47:24;95804.81;;;15.93;45.10
64668;BME280;51077;42.716;23.344;2022-10-31T00:49:50;95816.63;;;15.80;45.39
64668;BME280;51077;42.716;23.344;2022-10-31T00:52:15;95815.69;;;15.77;45.57
64668;BME280;51077;42.716;23.344;2022-10-31T00:54:40;95822.09;;;15.72;45.66
64668;BME280;51077;42.716;23.344;2022-10-31T00:57:06;95816.97;;;15.76;45.51
64668;BME280;51077;42.716;23.344;2022-10-31T00:59:31;95823.88;;;15.70;45.67
64668;BME280;51077;42.716;23.344;2022-10-31T01:01:57;95822.41;;;15.69;45.71
64668;BME280;51077;42.716;23.344;2022-10-31T01:04:22;95824.09;;;15.58;45.96
64668;BME280;51077;42.716;23.344;2022-10-31T01:06:48;95820.66;;;15.52;46.08
64668;BME280;51077;42.716;23.344;2022-10-31T01:09:13;95811.72;;;15.46;46.29
64668;BME280;51077;42.716;23.344;2022-10-31T01:11:38;95822.81;;;15.46;46.44
64668;BME280;51077;42.716;23.344;2022-10-31T01:14:04;95823.84;;;15.43;46.31
64668;BME280;51077;42.716;23.344;2022-10-31T01:16:29;95831.09;;;15.33;46.68
64668;BME280;51077;42.716;23.344;2022-10-31T01:18:55;95823.41;;;15.39;46.68
64668;BME280;51077;42.716;23.344;2022-10-31T01:21:27;95822.69;;;15.39;46.28
64668;BME280;51077;42.716;23.344;2022-10-31T01:23:53;95832.13;;;15.30;46.85
64668;BME280;51077;42.716;23.344;2022-10-31T01:26:25;95827.44;;;15.25;46.84
64668;BME280;51077;42.716;23.344;2022-10-31T01:28:59;95828.50;;;15.22;46.96
64668;BME280;51077;42.716;23.344;2022-10-31T01:31:27;95843.81;;;15.23;47.09
64668;BME280;51077;42.716;23.344;2022-10-31T01:33:53;95843.59;;;15.21;47.03
64668;BME280;51077;42.716;23.344;2022-10-31T01:36:22;95842.31;;;15.22;47.02
64668;BME280;51077;42.716;23.344;2022-10-31T01:38:49;95833.94;;;15.27;47.07
64668;BME280;51077;42.716;23.344;2022-10-31T01:41:18;95834.66;;;15.28;46.97
64668;BME280;51077;42.716;23.344;2022-10-31T01:43:45;95834.66;;;15.28;46.98
64668;BME280;51077;42.716;23.344;2022-10-31T01:46:11;95839.88;;;15.31;47.02
64668;BME280;51077;42.716;23.344;2022-10-31T01:48:37;95836.19;;;15.29;47.09
64668;BME280;51077;42.716;23.344;2022-10-31T01:51:04;95842.03;;;15.25;47.36
64668;BME280;51077;42.716;23.344;2022-10-31T01:53:31;95842.19;;;15.14;47.75
64668;BME280;51077;42.716;23.344;2022-10-31T01:55:57;95842.00;;;15.12;47.74
64668;BME280;51077;42.716;23.344;2022-10-31T01:58:27;95838.06;;;15.07;47.98
64668;BME280;51077;42.716;23.344;2022-10-31T02:00:56;95830.38;;;15.00;48.16
64668;BME280;51077;42.716;23.344;2022-10-31T02:03:23;95832.38;;;15.00;48.25
64668;BME280;51077;42.716;23.344;2022-10-31T02:05:49;95833.88;;;15.01;48.16
64668;BME280;51077;42.716;23.344;2022-10-31T02:08:24;95825.56;;;15.01;48.15
64668;BME280;51077;42.716;23.344;2022-10-31T02:10:50;95822.81;;;15.01;48.24
64668;BME280;51077;42.716;23.344;2022-10-31T02:13:16;95834.09;;;15.03;48.39
64668;BME280;51077;42.716;23.344;2022-10-31T02:15:44;95829.31;;;15.03;48.35
64668;BME280;51077;42.716;23.344;2022-10-31T02:18:10;95830.06;;;15.04;48.29
64668;BME280;51077;42.716;23.344;2022-10-31T02:20:52;95834.84;;;15.03;48.45
64668;BME280;51077;42.716;23.344;2022-10-31T02:31:40;95848.91;;;15.19;47.94
64668;BME280;51077;42.716;23.344;2022-10-31T02:37:03;95852.31;;;15.12;48.10
64668;BME280;51077;42.716;23.344;2022-10-31T02:39:45;95851.56;;;15.11;48.16
64668;BME280;51077;42.716;23.344;2022-10-31T02:45:07;95864.50;;;15.03;48.48
64668;BME280;51077;42.716;23.344;2022-10-31T02:47:41;95858.25;;;15.02;48.37
64668;BME280;51077;42.716;23.344;2022-10-31T02:50:18;95862.25;;;15.01;48.31
64668;BME280;51077;42.716;23.344;2022-10-31T02:52:44;95865.72;;;14.89;48.51
64668;BME280;51077;42.716;23.344;2022-10-31T02:57:54;95866.13;;;14.79;48.99
64668;BME280;51077;42.716;23.344;2022-10-31T03:00:21;95866.66;;;14.78;49.00
64668;BME280;51077;42.716;23.344;2022-10-31T03:05:27;95874.94;;;14.78;48.95
64668;BME280;51077;42.716;23.344;2022-10-31T03:10:51;95872.72;;;14.76;49.24
64668;BME280;51077;42.716;23.344;2022-10-31T03:13:31;95861.66;;;14.76;49.20
64668;BME280;51077;42.716;23.344;2022-10-31T03:16:10;95878.53;;;14.73;49.27
64668;BME280;51077;42.716;23.344;2022-10-31T03:18:42;95877.66;;;14.65;49.83
64668;BME280;51077;42.716;23.344;2022-10-31T03:21:45;95881.28;;;14.54;49.72
64668;BME280;51077;42.716;23.344;2022-10-31T03:24:13;95877.09;;;14.47;49.92
64668;BME280;51077;42.716;23.344;2022-10-31T03:26:52;95879.50;;;14.56;49.83
64668;BME280;51077;42.716;23.344;2022-10-31T03:29:22;95878.47;;;14.60;49.73
64668;BME280;51077;42.716;23.344;2022-10-31T03:34:20;95882.06;;;14.54;50.00
64668;BME280;51077;42.716;23.344;2022-10-31T03:36:49;95887.81;;;14.56;49.82
64668;BME280;51077;42.716;23.344;2022-10-31T03:39:17;95888.84;;;14.53;49.94
64668;BME280;51077;42.716;23.344;2022-10-31T03:41:48;95891.94;;;14.50;49.94
64668;BME280;51077;42.716;23.344;2022-10-31T03:44:17;95898.41;;;14.52;50.24
64668;BME280;51077;42.716;23.344;2022-10-31T03:46:44;95901.91;;;14.53;49.93
64668;BME280;51077;42.716;23.344;2022-10-31T03:49:10;95898.19;;;14.50;50.09
64668;BME280;51077;42.716;23.344;2022-10-31T03:54:09;95900.09;;;14.37;50.44
64668;BME280;51077;42.716;23.344;2022-10-31T03:56:47;95896.72;;;14.25;50.75
64668;BME280;51077;42.716;23.344;2022-10-31T03:59:23;95903.34;;;14.16;51.06
64668;BME280;51077;42.716;23.344;2022-10-31T04:01:53;95901.06;;;14.20;50.69
64668;BME280;51077;42.716;23.344;2022-10-31T04:04:21;95905.28;;;14.21;50.91
64668;BME280;51077;42.716;23.344;2022-10-31T04:06:48;95897.31;;;14.18;50.78
64668;BME280;51077;42.716;23.344;2022-10-31T04:09:16;95905.00;;;14.25;50.98
64668;BME280;51077;42.716;23.344;2022-10-31T04:11:50;95907.03;;;14.24;50.82
64668;BME280;51077;42.716;23.344;2022-10-31T04:14:16;95913.50;;;14.27;50.86
64668;BME280;51077;42.716;23.344;2022-10-31T04:16:43;95916.50;;;14.29;50.87
64668;BME280;51077;42.716;23.344;2022-10-31T04:19:10;95915.75;;;14.28;51.03
64668;BME280;51077;42.716;23.344;2022-10-31T04:21:36;95917.00;;;14.27;51.30
64668;BME280;51077;42.716;23.344;2022-10-31T04:24:02;95920.53;;;14.28;51.63
64668;BME280;51077;42.716;23.344;2022-10-31T04:26:27;95917.72;;;14.33;51.33
64668;BME280;51077;42.716;23.344;2022-10-31T04:28:53;95921.75;;;14.32;51.50
64668;BME280;51077;42.716;23.344;2022-10-31T04:31:18;95918.09;;;14.43;51.34
64668;BME280;51077;42.716;23.344;2022-10-31T04:33:44;95915.22;;;14.54;51.70
64668;BME280;51077;42.716;23.344;2022-10-31T04:36:09;95914.97;;;14.52;52.07
64668;BME280;51077;42.716;23.344;2022-10-31T04:38:35;95928.03;;;14.52;52.30
64668;BME280;51077;42.716;23.344;2022-10-31T04:41:00;95921.78;;;14.51;52.63
64668;BME280;51077;42.716;23.344;2022-10-31T04:43:26;95922.16;;;14.61;53.72
64668;BME280;51077;42.716;23.344;2022-10-31T04:45:51;95929.91;;;14.63;53.12
64668;BME280;51077;42.716;23.344;2022-10-31T04:48:17;95933.06;;;14.72;53.60
64668;BME280;51077;42.716;23.344;2022-10-31T04:50:42;95928.66;;;14.64;53.44
64668;BME280;51077;42.716;23.344;2022-10-31T04:53:08;95928.03;;;14.52;52.98
64668;BME280;51077;42.716;23.344;2022-10-31T04:55:35;95944.66;;;14.46;53.08
64668;BME280;51077;42.716;23.344;2022-10-31T04:58:00;95936.75;;;14.37;52.92
64668;BME280;51077;42.716;23.344;2022-10-31T05:00:26;95941.06;;;14.32;52.78
64668;BME280;51077;42.716;23.344;2022-10-31T05:02:54;95941.53;;;14.12;52.73
64668;BME280;51077;42.716;23.344;2022-10-31T05:05:25;95947.91;;;14.01;53.15
64668;BME280;51077;42.716;23.344;2022-10-31T05:07:51;95944.97;;;14.18;55.84
64668;BME280;51077;42.716;23.344;2022-10-31T05:13:27;95949.94;;;14.25;54.09
64668;BME280;51077;42.716;23.344;2022-10-31T05:15:53;95945.69;;;14.24;54.23
64668;BME280;51077;42.716;23.344;2022-10-31T05:18:18;95947.34;;;14.33;53.26
64668;BME280;51077;42.716;23.344;2022-10-31T05:20:43;95949.13;;;14.30;53.27
64668;BME280;51077;42.716;23.344;2022-10-31T05:23:09;95966.81;;;14.41;52.99
64668;BME280;51077;42.716;23.344;2022-10-31T05:25:34;95966.06;;;14.40;52.51
64668;BME280;51077;42.716;23.344;2022-10-31T05:27:59;95962.09;;;14.36;52.40
64668;BME280;51077;42.716;23.344;2022-10-31T05:30:31;95966.94;;;14.29;52.42
64668;BME280;51077;42.716;23.344;2022-10-31T05:32:57;95967.81;;;14.19;52.80
64668;BME280;51077;42.716;23.344;2022-10-31T05:35:28;95965.56;;;14.17;52.71
64668;BME280;51077;42.716;23.344;2022-10-31T05:37:54;95971.38;;;14.14;52.60
64668;BME280;51077;42.716;23.344;2022-10-31T05:40:20;95974.28;;;14.02;52.86
64668;BME280;51077;42.716;23.344;2022-10-31T05:42:46;95976.22;;;14.07;52.75
64668;BME280;51077;42.716;23.344;2022-10-31T05:45:16;95978.84;;;14.19;52.68
64668;BME280;51077;42.716;23.344;2022-10-31T05:47:42;95977.53;;;14.25;52.49
64668;BME280;51077;42.716;23.344;2022-10-31T05:50:09;95983.34;;;14.46;52.47
64668;BME280;51077;42.716;23.344;2022-10-31T05:52:35;95978.75;;;14.73;51.45
64668;BME280;51077;42.716;23.344;2022-10-31T05:55:01;95983.81;;;14.88;51.24
64668;BME280;51077;42.716;23.344;2022-10-31T05:57:26;95981.63;;;15.19;50.50
64668;BME280;51077;42.716;23.344;2022-10-31T05:59:53;95988.41;;;15.37;50.02
64668;BME280;51077;42.716;23.344;2022-10-31T06:02:19;95984.63;;;15.72;49.25
64668;BME280;51077;42.716;23.344;2022-10-31T06:04:45;95988.47;;;15.82;48.73
64668;BME280;51077;42.716;23.344;2022-10-31T06:07:10;95997.25;;;16.13;48.09
64668;BME280;51077;42.716;23.344;2022-10-31T06:09:36;95984.25;;;16.34;47.54
64668;BME280;51077;42.716;23.344;2022-10-31T06:12:01;95986.28;;;16.60;46.96
64668;BME280;51077;42.716;23.344;2022-10-31T06:14:26;95993.38;;;16.95;45.79
64668;BME280;51077;42.716;23.344;2022-10-31T06:16:54;96003.28;;;17.38;44.73
64668;BME280;51077;42.716;23.344;2022-10-31T06:19:19;96007.19;;;17.77;43.78
64668;BME280;51077;42.716;23.344;2022-10-31T06:21:44;96010.75;;;18.06;43.16
64668;BME280;51077;42.716;23.344;2022-10-31T06:24:10;96014.78;;;18.26;42.78
64668;BME280;51077;42.716;23.344;2022-10-31T06:26:35;96015.78;;;18.36;42.39
64668;BME280;51077;42.716;23.344;2022-10-31T06:29:01;96027.13;;;18.46;42.11
64668;BME280;51077;42.716;23.344;2022-10-31T06:31:26;96029.06;;;18.58;41.95
64668;BME280;51077;42.716;23.344;2022-10-31T06:33:51;96026.41;;;18.74;41.64
64668;BME280;51077;42.716;23.344;2022-10-31T06:36:17;96033.72;;;18.92;41.15
64668;BME280;51077;42.716;23.344;2022-10-31T06:38:42;96031.78;;;19.16;40.85
64668;BME280;51077;42.716;23.344;2022-10-31T06:41:07;96033.31;;;19.32;40.55
64668;BME280;51077;42.716;23.344;2022-10-31T06:43:33;96030.03;;;19.56;40.17
64668;BME280;51077;42.716;23.344;2022-10-31T06:46:02;96032.16;;;19.79;40.26
64668;BME280;51077;42.716;23.344;2022-10-31T06:48:28;96033.66;;;19.95;39.64
64668;BME280;51077;42.716;23.344;2022-10-31T06:50:57;96030.47;;;20.06;39.21
64668;BME280;51077;42.716;23.344;2022-10-31T06:53:23;96033.66;;;20.33;38.85
64668;BME280;51077;42.716;23.344;2022-10-31T06:55:49;96031.00;;;20.66;38.30
64668;BME280;51077;42.716;23.344;2022-10-31T06:58:14;96037.81;;;20.96;37.79
64668;BME280;51077;42.716;23.344;2022-10-31T07:00:39;96040.13;;;21.22;37.26
64668;BME280;51077;42.716;23.344;2022-10-31T07:03:09;96037.41;;;21.55;36.49
64668;BME280;51077;42.716;23.344;2022-10-31T07:05:35;96039.03;;;21.91;35.95
64668;BME280;51077;42.716;23.344;2022-10-31T07:08:03;96030.50;;;22.14;35.69
64668;BME280;51077;42.716;23.344;2022-10-31T07:10:30;96030.47;;;22.39;35.27
64668;BME280;51077;42.716;23.344;2022-10-31T07:12:57;96036.97;;;22.58;35.02
64668;BME280;51077;42.716;23.344;2022-10-31T07:15:24;96041.59;;;22.64;35.06
64668;BME280;51077;42.716;23.344;2022-10-31T07:17:50;96035.69;;;22.77;34.78
64668;BME280;51077;42.716;23.344;2022-10-31T07:20:16;96033.41;;;23.00;34.43
64668;BME280;51077;42.716;23.344;2022-10-31T07:22:42;96022.66;;;23.24;34.26
64668;BME280;51077;42.716;23.344;2022-10-31T07:25:08;96014.44;;;23.53;33.74
64668;BME280;51077;42.716;23.344;2022-10-31T07:27:41;96010.22;;;23.98;33.19
64668;BME280;51077;42.716;23.344;2022-10-31T07:30:09;96013.75;;;24.36;32.71
64668;BME280;51077;42.716;23.344;2022-10-31T07:32:42;96017.06;;;24.61;31.94
64668;BME280;51077;42.716;23.344;2022-10-31T07:35:19;96022.25;;;24.84;31.57
64668;BME280;51077;42.716;23.344;2022-10-31T07:37:45;96027.41;;;25.07;31.19
64668;BME280;51077;42.716;23.344;2022-10-31T07:40:14;96020.75;;;25.41;31.16
64668;BME280;51077;42.716;23.344;2022-10-31T07:42:42;96009.56;;;25.72;30.88
64668;BME280;51077;42.716;23.344;2022-10-31T07:45:10;96011.28;;;25.97;30.35
64668;BME280;51077;42.716;23.344;2022-10-31T07:47:40;96014.88;;;26.19;29.93
64668;BME280;51077;42.716;23.344;2022-10-31T07:50:06;96008.56;;;26.40;29.74
64668;BME280;51077;42.716;23.344;2022-10-31T07:52:32;96003.69;;;26.62;29.37
64668;BME280;51077;42.716;23.344;2022-10-31T07:54:57;96007.97;;;26.84;28.98
64668;BME280;51077;42.716;23.344;2022-10-31T07:57:22;96003.78;;;27.06;28.91
64668;BME280;51077;42.716;23.344;2022-10-31T07:59:48;96009.03;;;27.22;28.84
64668;BME280;51077;42.716;23.344;2022-10-31T08:02:13;96009.22;;;27.47;28.62
64668;BME280;51077;42.716;23.344;2022-10-31T08:04:38;96016.47;;;27.62;28.56
64668;BME280;51077;42.716;23.344;2022-10-31T08:07:04;96019.38;;;27.74;28.23
64668;BME280;51077;42.716;23.344;2022-10-31T08:09:29;96015.47;;;27.91;28.08
64668;BME280;51077;42.716;23.344;2022-10-31T08:11:55;96007.81;;;28.17;27.69
64668;BME280;51077;42.716;23.344;2022-10-31T08:14:20;96015.69;;;28.18;27.81
64668;BME280;51077;42.716;23.344;2022-10-31T08:16:46;96016.44;;;28.30;27.80
64668;BME280;51077;42.716;23.344;2022-10-31T08:19:11;96017.41;;;28.47;27.30
64668;BME280;51077;42.716;23.344;2022-10-31T08:21:37;96017.34;;;28.82;27.12
64668;BME280;51077;42.716;23.344;2022-10-31T08:24:02;96019.91;;;29.27;26.72
64668;BME280;51077;42.716;23.344;2022-10-31T08:26:27;96015.91;;;29.44;26.24
64668;BME280;51077;42.716;23.344;2022-10-31T08:28:53;96011.53;;;29.54;25.94
64668;BME280;51077;42.716;23.344;2022-10-31T08:31:20;96009.94;;;29.51;26.02
64668;BME280;51077;42.716;23.344;2022-10-31T08:33:45;96005.94;;;29.43;26.21
64668;BME280;51077;42.716;23.344;2022-10-31T08:36:11;96008.69;;;29.54;26.11
64668;BME280;51077;42.716;23.344;2022-10-31T08:38:36;95998.81;;;29.67;25.93
64668;BME280;51077;42.716;23.344;2022-10-31T08:41:02;96005.94;;;29.82;25.81
64668;BME280;51077;42.716;23.344;2022-10-31T08:43:27;95995.91;;;29.93;25.69
64668;BME280;51077;42.716;23.344;2022-10-31T08:45:52;95997.72;;;30.14;25.47
64668;BME280;51077;42.716;23.344;2022-10-31T08:48:20;96000.50;;;30.39;25.37
64668;BME280;51077;42.716;23.344;2022-10-31T08:50:46;95997.22;;;30.59;24.89
64668;BME280;51077;42.716;23.344;2022-10-31T08:53:16;95991.03;;;30.62;24.98
64668;BME280;51077;42.716;23.344;2022-10-31T08:55:43;96001.50;;;30.60;24.88
64668;BME280;51077;42.716;23.344;2022-10-31T08:58:11;95990.25;;;30.89;25.09
64668;BME280;51077;42.716;23.344;2022-10-31T09:00:37;96003.28;;;31.24;24.68
64668;BME280;51077;42.716;23.344;2022-10-31T09:03:07;95999.84;;;31.12;24.73
64668;BME280;51077;42.716;23.344;2022-10-31T09:05:34;95998.47;;;31.13;24.18
64668;BME280;51077;42.716;23.344;2022-10-31T09:08:01;95994.16;;;31.12;24.41
64668;BME280;51077;42.716;23.344;2022-10-31T09:10:28;95990.91;;;31.17;24.00
64668;BME280;51077;42.716;23.344;2022-10-31T09:12:55;95995.28;;;31.20;24.27
64668;BME280;51077;42.716;23.344;2022-10-31T09:15:21;95991.44;;;31.43;23.89
64668;BME280;51077;42.716;23.344;2022-10-31T09:17:47;95986.91;;;31.68;23.96
64668;BME280;51077;42.716;23.344;2022-10-31T09:20:13;95983.09;;;31.93;23.63
64668;BME280;51077;42.716;23.344;2022-10-31T09:22:38;95989.88;;;32.01;23.73
64668;BME280;51077;42.716;23.344;2022-10-31T09:25:04;95986.75;;;32.11;23.30
64668;BME280;51077;42.716;23.344;2022-10-31T09:27:29;95983.06;;;32.24;23.17
64668;BME280;51077;42.716;23.344;2022-10-31T09:29:54;95980.31;;;32.42;23.11
64668;BME280;51077;42.716;23.344;2022-10-31T09:32:20;95981.19;;;32.63;23.17
64668;BME280;51077;42.716;23.344;2022-10-31T09:34:45;95982.47;;;32.93;22.60
64668;BME280;51077;42.716;23.344;2022-10-31T09:37:10;95992.41;;;33.10;22.45
64668;BME280;51077;42.716;23.344;2022-10-31T09:39:36;95986.31;;;33.36;22.63
64668;BME280;51077;42.716;23.344;2022-10-31T09:53:23;95971.06;;;34.42;21.00
64668;BME280;51077;42.716;23.344;2022-10-31T09:55:51;95966.09;;;34.63;21.44
64668;BME280;51077;42.716;23.344;2022-10-31T09:58:25;95965.31;;;34.82;21.01
64668;BME280;51077;42.716;23.344;2022-10-31T10:00:53;95963.53;;;34.93;20.87
64668;BME280;51077;42.716;23.344;2022-10-31T10:03:37;95952.06;;;35.13;20.62
64668;BME280;51077;42.716;23.344;2022-10-31T10:06:13;95962.75;;;35.12;20.52
64668;BME280;51077;42.716;23.344;2022-10-31T10:08:39;95954.88;;;35.11;20.32
64668;BME280;51077;42.716;23.344;2022-10-31T10:11:27;95942.56;;;35.28;20.70
64668;BME280;51077;42.716;23.344;2022-10-31T10:14:12;95950.59;;;35.12;20.06
64668;BME280;51077;42.716;23.344;2022-10-31T10:22:49;95935.19;;;34.77;20.11
64668;BME280;51077;42.716;23.344;2022-10-31T10:25:22;95926.59;;;34.75;20.50
64668;BME280;51077;42.716;23.344;2022-10-31T10:30:44;95919.09;;;35.08;20.28
64668;BME280;51077;42.716;23.344;2022-10-31T10:33:25;95916.06;;;35.47;20.06
64668;BME280;51077;42.716;23.344;2022-10-31T10:35:58;95915.69;;;35.59;19.60
64668;BME280;51077;42.716;23.344;2022-10-31T10:40:52;95904.09;;;35.53;19.11
64668;BME280;51077;42.716;23.344;2022-10-31T10:49:38;95892.94;;;36.13;18.99
64668;BME280;51077;42.716;23.344;2022-10-31T10:52:37;95888.75;;;36.16;19.14
64668;BME280;51077;42.716;23.344;2022-10-31T10:55:03;95887.97;;;36.14;19.04
64668;BME280;51077;42.716;23.344;2022-10-31T11:00:17;95889.75;;;36.27;19.28
64668;BME280;51077;42.716;23.344;2022-10-31T11:02:43;95891.84;;;36.27;18.91
64668;BME280;51077;42.716;23.344;2022-10-31T11:05:18;95884.75;;;36.54;19.39
64668;BME280;51077;42.716;23.344;2022-10-31T11:07:45;95885.53;;;36.86;18.80
64668;BME280;51077;42.716;23.344;2022-10-31T11:10:15;95873.63;;;37.28;18.13
64668;BME280;51077;42.716;23.344;2022-10-31T11:12:42;95879.78;;;37.46;18.06
64668;BME280;51077;42.716;23.344;2022-10-31T11:15:19;95868.94;;;37.41;18.01
64668;BME280;51077;42.716;23.344;2022-10-31T11:17:49;95867.91;;;37.28;17.47
64668;BME280;51077;42.716;23.344;2022-10-31T11:22:42;95865.59;;;36.90;18.04
64668;BME280;51077;42.716;23.344;2022-10-31T11:25:23;95853.31;;;37.16;17.47
64668;BME280;51077;42.716;23.344;2022-10-31T11:28:08;95858.31;;;37.15;17.73
64668;BME280;51077;42.716;23.344;2022-10-31T11:30:47;95854.09;;;37.18;17.25
64668;BME280;51077;42.716;23.344;2022-10-31T11:33:20;95850.44;;;37.14;17.43
64668;BME280;51077;42.716;23.344;2022-10-31T11:35:48;95846.06;;;37.11;17.52
64668;BME280;51077;42.716;23.344;2022-10-31T11:38:19;95843.63;;;37.31;17.19
64668;BME280;51077;42.716;23.344;2022-10-31T11:40:58;95846.78;;;37.43;17.44
64668;BME280;51077;42.716;23.344;2022-10-31T11:43:24;95845.28;;;37.40;17.59
64668;BME280;51077;42.716;23.344;2022-10-31T11:45:51;95832.69;;;37.21;17.25
64668;BME280;51077;42.716;23.344;2022-10-31T11:48:21;95832.25;;;37.01;17.66
64668;BME280;51077;42.716;23.344;2022-10-31T11:50:53;95827.06;;;36.93;17.75
64668;BME280;51077;42.716;23.344;2022-10-31T11:53:28;95835.44;;;36.85;17.51
64668;BME280;51077;42.716;23.344;2022-10-31T11:56:13;95831.59;;;36.74;17.70
64668;BME280;51077;42.716;23.344;2022-10-31T11:58:40;95819.72;;;36.56;18.07
64668;BME280;51077;42.716;23.344;2022-10-31T12:01:05;95817.78;;;36.65;17.66
64668;BME280;51077;42.716;23.344;2022-10-31T12:03:54;95818.97;;;36.84;17.18
64668;BME280;51077;42.716;23.344;2022-10-31T12:06:29;95816.72;;;36.80;17.50
64668;BME280;51077;42.716;23.344;2022-10-31T12:08:55;95812.94;;;36.71;17.33
64668;BME280;51077;42.716;23.344;2022-10-31T12:11:31;95818.03;;;36.75;17.68
64668;BME280;51077;42.716;23.344;2022-10-31T12:14:12;95822.34;;;36.46;18.07
64668;BME280;51077;42.716;23.344;2022-10-31T12:19:42;95811.00;;;36.22;17.69
64668;BME280;51077;42.716;23.344;2022-10-31T12:30:31;95804.47;;;36.17;17.72
64668;BME280;51077;42.716;23.344;2022-10-31T12:36:00;95801.47;;;35.85;18.35
64668;BME280;51077;42.716;23.344;2022-10-31T12:38:41;95795.28;;;35.67;18.43
64668;BME280;51077;42.716;23.344;2022-10-31T12:57:24;95800.16;;;34.90;19.20
64668;BME280;51077;42.716;23.344;2022-10-31T13:00:11;95802.75;;;34.82;19.01
64668;BME280;51077;42.716;23.344;2022-10-31T13:03:09;95801.91;;;34.78;19.29
64668;BME280;51077;42.716;23.344;2022-10-31T13:05:42;95805.00;;;34.62;19.44
64668;BME280;51077;42.716;23.344;2022-10-31T13:08:17;95802.13;;;34.62;19.54
64668;BME280;51077;42.716;23.344;2022-10-31T13:10:48;95799.28;;;34.62;19.51
64668;BME280;51077;42.716;23.344;2022-10-31T13:13:23;95792.72;;;34.57;19.33
64668;BME280;51077;42.716;23.344;2022-10-31T13:15:57;95796.78;;;34.50;19.19
64668;BME280;51077;42.716;23.344;2022-10-31T13:18:55;95802.63;;;34.34;19.66
64668;BME280;51077;42.716;23.344;2022-10-31T13:21:26;95805.22;;;34.26;19.59
64668;BME280;51077;42.716;23.344;2022-10-31T13:23:52;95803.16;;;34.07;19.51
64668;BME280;51077;42.716;23.344;2022-10-31T13:27:14;95793.91;;;33.86;20.03
64668;BME280;51077;42.716;23.344;2022-10-31T13:29:35;95796.25;;;33.72;20.27
64668;BME280;51077;42.716;23.344;2022-10-31T13:32:06;95802.09;;;33.76;19.88
64668;BME280;51077;42.716;23.344;2022-10-31T13:34:53;95801.38;;;33.75;19.78
64668;BME280;51077;42.716;23.344;2022-10-31T13:37:35;95806.91;;;33.71;20.19
64668;BME280;51077;42.716;23.344;2022-10-31T13:45:21;95803.03;;;33.43;20.00
64668;BME280;51077;42.716;23.344;2022-10-31T13:50:41;95797.53;;;33.29;20.48
64668;BME280;51077;42.716;23.344;2022-10-31T13:55:44;95799.06;;;33.12;20.38
64668;BME280;51077;42.716;23.344;2022-10-31T14:01:19;95805.59;;;32.79;20.69
64668;BME280;51077;42.716;23.344;2022-10-31T14:03:47;95800.75;;;32.64;20.97
64668;BME280;51077;42.716;23.344;2022-10-31T14:06:22;95799.47;;;32.49;21.45
64668;BME280;51077;42.716;23.344;2022-10-31T14:08:51;95803.00;;;32.32;21.64
64668;BME280;51077;42.716;23.344;2022-10-31T14:11:24;95807.34;;;32.17;21.23
64668;BME280;51077;42.716;23.344;2022-10-31T14:13:52;95802.66;;;32.06;21.90
64668;BME280;51077;42.716;23.344;2022-10-31T14:16:26;95810.72;;;31.95;21.93
64668;BME280;51077;42.716;23.344;2022-10-31T14:19:05;95810.09;;;31.81;21.94
64668;BME280;51077;42.716;23.344;2022-10-31T14:21:38;95812.81;;;31.61;21.85
64668;BME280;51077;42.716;23.344;2022-10-31T14:24:34;95808.22;;;31.38;22.58
64668;BME280;51077;42.716;23.344;2022-10-31T14:29:27;95811.03;;;30.91;22.74
64668;BME280;51077;42.716;23.344;2022-10-31T14:32:06;95805.97;;;30.73;23.26
64668;BME280;51077;42.716;23.344;2022-10-31T14:34:42;95810.13;;;30.57;23.49
64668;BME280;51077;42.716;23.344;2022-10-31T14:42:46;95815.94;;;30.01;23.89
64668;BME280;51077;42.716;23.344;2022-10-31T14:50:46;95813.00;;;29.44;24.66
64668;BME280;51077;42.716;23.344;2022-10-31T14:53:28;95815.09;;;29.30;24.98
64668;BME280;51077;42.716;23.344;2022-10-31T14:55:55;95818.44;;;29.13;25.18
64668;BME280;51077;42.716;23.344;2022-10-31T14:58:25;95816.06;;;28.95;25.29
64668;BME280;51077;42.716;23.344;2022-10-31T15:00:56;95818.41;;;28.73;25.40
64668;BME280;51077;42.716;23.344;2022-10-31T15:03:27;95819.59;;;28.57;25.72